Time;durP1;ratioP1;P1;durP2;ratioP2;P2;SDS_P1;SDS_P2;PMS_P1;PMS_P2;Temp;Humidity;BMP_temperature;BMP_pressure;BME280_temperature;BME280_humidity;BME280_pressure;Samples;Min_cycle;Max_cycle;Signal;HPM_P1;HPM_P2
2022/03/20 00:00:31;;;;;;;;;;;;;;;2.55;100.00;103868.00;5023010;28;20067;-75
2022/03/20 00:02:57;;;;;;;35.33;16.02;;;;;;;2.45;100.00;103853.28;5021964;28;19944;-75
2022/03/20 00:05:23;;;;;;;42.85;17.38;;;;;;;2.38;100.00;103867.50;5024243;28;20088;-75
2022/03/20 00:07:48;;;;;;;38.47;15.55;;;;;;;2.40;100.00;103857.81;5040861;28;20025;-75
2022/03/20 00:10:14;;;;;;;36.45;18.25;;;;;;;2.51;100.00;103861.94;5023183;28;20132;-75
2022/03/20 00:12:42;;;;;;;40.47;16.42;;;;;;;2.41;100.00;103859.53;5015562;28;20115;-75
2022/03/20 00:15:09;;;;;;;33.88;15.75;;;;;;;2.50;100.00;103864.59;5004132;28;20070;-74
2022/03/20 00:17:35;;;;;;;41.55;16.98;;;;;;;2.50;100.00;103857.53;5034572;28;20034;-75
2022/03/20 00:20:02;;;;;;;35.80;15.43;;;;;;;2.51;100.00;103859.31;5023949;28;20884;-76
2022/03/20 00:22:29;;;;;;;35.30;16.35;;;;;;;2.46;100.00;103847.13;5002883;28;20041;-76
2022/03/20 00:24:54;;;;;;;39.15;17.98;;;;;;;2.47;100.00;103852.34;5042294;28;20118;-74
2022/03/20 00:27:20;;;;;;;33.23;16.60;;;;;;;2.46;100.00;103844.50;5024099;28;20067;-74
2022/03/20 00:29:45;;;;;;;37.35;16.60;;;;;;;2.41;100.00;103844.59;5022105;28;20036;-75
2022/03/20 00:32:12;;;;;;;39.38;19.23;;;;;;;2.35;100.00;103839.44;5035237;28;20025;-75
2022/03/20 00:34:39;;;;;;;42.97;17.13;;;;;;;2.36;100.00;103840.31;5039688;28;20124;-74
2022/03/20 00:37:06;;;;;;;38.10;18.60;;;;;;;2.36;100.00;103827.13;5039675;28;20457;-74
2022/03/20 00:39:35;;;;;;;32.22;15.80;;;;;;;2.36;100.00;103824.47;5025843;28;20021;-74
2022/03/20 00:42:01;;;;;;;36.53;17.88;;;;;;;2.29;100.00;103821.09;5016814;28;20040;-75
2022/03/20 00:44:27;;;;;;;34.58;16.48;;;;;;;2.19;100.00;103819.59;5018847;28;20025;-75
2022/03/20 00:46:52;;;;;;;33.37;15.47;;;;;;;2.16;100.00;103820.53;5017441;28;20064;-76
2022/03/20 00:49:17;;;;;;;46.93;18.77;;;;;;;2.24;100.00;103821.19;5000753;28;20028;-75
2022/03/20 00:51:43;;;;;;;37.15;17.67;;;;;;;2.23;100.00;103818.63;5003329;28;20041;-75
2022/03/20 00:54:10;;;;;;;33.88;15.55;;;;;;;2.18;100.00;103823.09;5016363;28;20052;-75
2022/03/20 00:56:36;;;;;;;41.10;18.20;;;;;;;2.17;100.00;103816.97;5008202;28;20033;-75
2022/03/20 00:59:02;;;;;;;45.03;17.63;;;;;;;2.13;100.00;103806.53;5021190;28;20032;-76
2022/03/20 01:01:29;;;;;;;40.10;18.63;;;;;;;2.08;100.00;103810.16;5019709;28;20040;-75
2022/03/20 01:03:55;;;;;;;38.58;18.10;;;;;;;2.10;100.00;103813.59;5022444;28;20128;-74
2022/03/20 01:06:22;;;;;;;;;;;;;;;2.13;100.00;103811.78;5039788;28;20113;-74
2022/03/20 01:08:49;;;;;;;34.60;17.13;;;;;;;2.10;100.00;103802.19;5000534;28;19974;-75
2022/03/20 01:11:15;;;;;;;43.60;18.60;;;;;;;2.10;100.00;103803.03;5019273;28;20043;-74
2022/03/20 01:13:40;;;;;;;38.58;19.65;;;;;;;2.08;100.00;103790.81;5010281;28;20036;-75
2022/03/20 01:16:06;;;;;;;37.50;17.23;;;;;;;2.06;100.00;103789.97;5039731;28;20105;-75
2022/03/20 01:18:31;;;;;;;41.33;18.77;;;;;;;2.04;100.00;103791.78;5002934;28;20843;-76
2022/03/20 01:20:57;;;;;;;45.13;18.20;;;;;;;2.09;100.00;103784.66;5021237;28;20120;-75
2022/03/20 01:23:22;;;;;;;47.95;19.75;;;;;;;2.09;100.00;103784.66;5005084;28;20119;-75
2022/03/20 01:25:49;;;;;;;42.70;19.80;;;;;;;2.04;100.00;103784.75;5027540;28;20094;-76
2022/03/20 01:28:15;;;;;;;37.88;18.75;;;;;;;1.95;100.00;103771.75;5003176;28;20394;-74
2022/03/20 01:30:41;;;;;;;43.13;18.98;;;;;;;1.98;100.00;103778.72;5021211;28;20037;-75
2022/03/20 01:33:06;;;;;;;39.03;19.00;;;;;;;1.93;100.00;103772.69;5002129;28;20466;-75
2022/03/20 01:35:31;;;;;;;46.57;20.87;;;;;;;1.88;100.00;103770.16;5041991;28;20041;-75
2022/03/20 01:37:57;;;;;;;38.33;17.77;;;;;;;1.87;100.00;103763.13;5033494;28;20280;-75
2022/03/20 01:40:23;;;;;;;42.53;19.52;;;;;;;1.85;100.00;103764.94;5032821;28;20516;-75
2022/03/20 01:42:49;;;;;;;35.80;19.08;;;;;;;1.82;100.00;103752.69;4999427;28;20879;-75
2022/03/20 01:45:20;;;;;;;42.95;19.50;;;;;;;1.88;100.00;103751.72;5032628;28;20438;-74
2022/03/20 01:47:47;;;;;;;49.10;19.52;;;;;;;1.83;100.00;103743.03;5035349;28;20067;-75
2022/03/20 01:50:18;;;;;;;41.78;19.42;;;;;;;1.88;100.00;103746.44;5020515;28;20375;-74
2022/03/20 01:52:47;;;;;;;40.38;18.63;;;;;;;1.83;100.00;103745.69;5017264;28;20040;-76
2022/03/20 01:55:15;;;;;;;38.88;19.00;;;;;;;1.78;100.00;103739.63;5032110;28;20025;-76
2022/03/20 01:57:40;;;;;;;36.70;17.35;;;;;;;1.85;100.00;103734.22;5019569;28;20033;-75
2022/03/20 02:00:07;;;;;;;37.70;18.40;;;;;;;1.80;100.00;103736.06;5014965;28;20073;-75
2022/03/20 02:02:38;;;;;;;41.35;19.17;;;;;;;1.83;100.00;103727.25;5017689;28;20037;-75
2022/03/20 02:05:06;;;;;;;45.53;21.38;;;;;;;1.87;100.00;103727.16;5020523;28;20057;-75
2022/03/20 02:07:34;;;;;;;35.50;18.40;;;;;;;1.80;100.00;103716.75;5003463;28;20032;-75
2022/03/20 02:10:00;;;;;;;37.10;17.80;;;;;;;1.81;100.00;103716.72;5012307;28;20025;-73
2022/03/20 02:12:25;;;;;;;41.33;20.27;;;;;;;1.76;100.00;103708.06;5021367;28;20061;-74
2022/03/20 02:14:51;;;;;;;46.23;21.50;;;;;;;1.82;100.00;103707.03;5034685;23;20051;-88
2022/03/20 02:17:16;;;;;;;39.35;17.88;;;;;;;1.82;100.00;103699.13;5029002;28;20028;-90
2022/03/20 02:19:41;;;;;;;42.47;18.58;;;;;;;1.77;100.00;103695.75;5048657;28;20059;-90
2022/03/20 02:22:07;;;;;;;39.38;18.23;;;;;;;1.73;100.00;103694.06;5040842;28;20043;-90
2022/03/20 02:24:36;;;;;;;39.13;18.47;;;;;;;1.75;100.00;103684.38;5022826;28;20251;-90
2022/03/20 02:27:06;;;;;;;38.60;19.70;;;;;;;1.77;100.00;103688.69;5019407;28;20045;-89
2022/03/20 02:29:32;;;;;;;36.20;16.83;;;;;;;1.74;100.00;103687.91;5037085;28;20106;-89
2022/03/20 02:31:59;;;;;;;43.30;19.00;;;;;;;1.74;100.00;103685.28;5016523;28;20029;-90
2022/03/20 02:34:30;;;;;;;41.80;19.33;;;;;;;1.77;100.00;103688.69;5016254;28;20539;-90
2022/03/20 02:36:57;;;;;;;38.15;17.27;;;;;;;1.75;100.00;103689.63;5019310;28;20037;-89
2022/03/20 02:39:22;;;;;;;36.65;17.02;;;;;;;1.66;100.00;103685.44;5025480;28;20022;-89
2022/03/20 02:41:50;;;;;;;37.03;18.30;;;;;;;1.62;100.00;103687.28;5036979;28;20041;-90
2022/03/20 02:44:16;;;;;;;47.97;19.15;;;;;;;1.64;100.00;103682.00;5014640;28;20119;-90
2022/03/20 02:46:42;;;;;;;44.20;20.27;;;;;;;1.73;100.00;103687.03;5021784;28;20041;-90
2022/03/20 02:49:09;;;;;;;37.90;19.08;;;;;;;1.71;100.00;103678.31;5028099;28;20108;-89
2022/03/20 02:51:36;;;;;;;35.40;16.48;;;;;;;1.68;100.00;103666.06;5026163;28;20037;-91
2022/03/20 02:54:06;;;;;;;40.53;18.17;;;;;;;1.72;100.00;103668.66;5036798;28;20025;-89
2022/03/20 02:56:33;;;;;;;38.00;18.45;;;;;;;1.79;100.00;103671.09;5023388;28;20060;-89
2022/03/20 02:59:00;;;;;;;39.80;17.98;;;;;;;1.67;100.00;103669.59;5022868;28;20013;-89
2022/03/20 03:01:25;;;;;;;34.78;17.60;;;;;;;1.72;100.00;103661.59;5037707;28;20128;-89
2022/03/20 03:03:53;;;;;;;43.30;18.77;;;;;;;1.71;100.00;103664.25;5021699;28;20112;-89
2022/03/20 03:06:20;;;;;;;39.25;16.95;;;;;;;1.70;100.00;103663.41;5021996;28;20128;-89
2022/03/20 03:11:30;;;;;;;39.38;18.38;;;;;;;1.68;100.00;103657.28;5037414;28;20021;-89
2022/03/20 03:13:56;;;;;;;41.30;19.73;;;;;;;1.71;100.00;103661.63;5023764;28;20477;-89
2022/03/20 03:16:21;;;;;;;32.43;17.13;;;;;;;1.63;100.00;103651.25;5014280;28;20322;-89
2022/03/20 03:18:47;;;;;;;39.50;18.20;;;;;;;1.70;100.00;103660.75;5023218;28;20032;-89
2022/03/20 03:21:17;;;;;;;38.28;18.25;;;;;;;1.66;100.00;103657.34;5042851;28;20489;-89
2022/03/20 03:23:44;;;;;;;37.22;18.63;;;;;;;1.65;100.00;103652.09;5024673;28;20474;-89
2022/03/20 03:26:10;;;;;;;;;;;;;;;1.66;100.00;103657.34;5028640;28;20070;-91
2022/03/20 03:28:36;;;;;;;36.22;18.02;;;;;;;1.68;100.00;103654.66;5038641;28;20312;-89
2022/03/20 03:31:07;;;;;;;33.75;17.73;;;;;;;1.62;100.00;103634.59;5039721;28;20052;-89
2022/03/20 03:33:36;;;;;;;52.03;18.42;;;;;;;1.72;100.00;103647.56;5016236;28;20060;-89
2022/03/20 03:36:02;;;;;;;34.60;16.85;;;;;;;1.69;100.00;103643.25;5017378;28;20028;-89
2022/03/20 03:38:35;;;;;;;38.13;19.52;;;;;;;1.71;100.00;103643.19;5021676;28;20025;-89
2022/03/20 03:41:01;;;;;;;34.15;17.92;;;;;;;1.73;100.00;103638.75;5016156;28;20033;-89
2022/03/20 03:43:27;;;;;;;39.10;18.65;;;;;;;1.75;100.00;103632.53;5020397;28;20025;-90
2022/03/20 03:45:53;;;;;;;40.50;18.20;;;;;;;1.64;100.00;103619.63;5038989;28;20054;-89
2022/03/20 03:48:19;;;;;;;38.47;17.23;;;;;;;1.68;100.00;103620.41;5023209;28;20773;-89
2022/03/20 03:50:47;;;;;;;35.83;17.52;;;;;;;1.64;100.00;103621.41;5020279;28;20374;-89
2022/03/20 03:53:15;;;;;;;37.55;17.77;;;;;;;1.55;100.00;103619.84;5021002;28;20078;-90
2022/03/20 03:55:44;;;;;;;38.58;19.25;;;;;;;1.64;100.00;103621.41;5028147;28;20431;-89
2022/03/20 03:58:12;;;;;;;35.28;18.83;;;;;;;1.64;100.00;103608.25;5039011;28;20396;-89
2022/03/20 04:00:38;;;;;;;46.17;18.88;;;;;;;1.62;100.00;103597.72;5026007;28;20070;-89
2022/03/20 04:03:04;;;;;;;40.67;18.38;;;;;;;1.60;100.00;103606.56;5017211;28;20041;-90
2022/03/20 04:05:31;;;;;;;44.67;18.83;;;;;;;1.56;100.00;103611.03;5037598;28;20053;-91
2022/03/20 04:07:57;;;;;;;39.08;16.58;;;;;;;1.58;100.00;103608.38;5040168;28;20032;-89
2022/03/20 04:10:24;;;;;;;49.67;18.58;;;;;;;1.43;100.00;103596.41;5020436;28;20037;-90
2022/03/20 04:12:50;;;;;;;36.88;16.73;;;;;;;1.50;100.00;103603.28;5039862;28;20033;-89
2022/03/20 04:15:17;;;;;;;37.63;18.27;;;;;;;1.51;100.00;103598.88;5019597;28;20051;-89
2022/03/20 04:17:43;;;;;;;33.15;16.92;;;;;;;1.47;100.00;103590.16;5020094;28;20043;-89
2022/03/20 04:20:10;;;;;;;37.55;17.10;;;;;;;1.57;100.00;103589.06;5034943;28;20029;-90
2022/03/20 04:22:37;;;;;;;38.97;18.77;;;;;;;1.61;100.00;103585.44;5024803;23;20042;-76
2022/03/20 04:25:04;;;;;;;32.70;16.33;;;;;;;1.62;100.00;103584.56;4996975;28;20026;-76
2022/03/20 04:27:30;;;;;;;37.65;16.88;;;;;;;1.60;100.00;103575.81;4995232;28;20038;-77
2022/03/20 04:29:56;;;;;;;34.63;16.60;;;;;;;1.55;100.00;103567.16;4987935;28;21567;-76
2022/03/20 04:32:22;;;;;;;37.85;20.08;;;;;;;1.58;100.00;103567.09;4991232;28;20095;-76
2022/03/20 04:34:47;;;;;;;33.42;16.30;;;;;;;1.65;100.00;103566.03;4989684;28;20045;-77
2022/03/20 04:37:13;;;;;;;36.13;16.17;;;;;;;1.65;100.00;103557.28;4989354;28;20033;-76
2022/03/20 04:39:39;;;;;;;33.90;17.90;;;;;;;1.64;100.00;103558.19;4988820;28;20026;-77
2022/03/20 04:42:05;;;;;;;;;;;;;;;1.62;100.00;103550.31;4988108;28;20042;-76
2022/03/20 04:44:31;;;;;;;32.92;15.38;;;;;;;1.60;100.00;103549.50;4990048;28;19916;-77
2022/03/20 04:46:57;;;;;;;;;;;;;;;1.60;100.00;103536.31;5003916;28;20043;-77
2022/03/20 05:00:21;;;;;;;32.60;16.38;;;;;;;1.62;100.00;103525.75;4997923;28;20435;-77
2022/03/20 05:02:48;;;;;;;30.85;15.07;;;;;;;1.66;100.00;103533.56;5000563;28;20076;-77
2022/03/20 05:05:14;;;;;;;30.38;15.07;;;;;;;1.65;100.00;103530.94;5003963;28;20946;-77
2022/03/20 05:07:39;;;;;;;27.77;15.10;;;;;;;1.72;100.00;103531.69;4990771;28;20042;-77
2022/03/20 05:15:36;;;;;;;33.35;16.20;;;;;;;1.74;100.00;103516.69;4988662;28;20034;-78
2022/03/20 05:18:02;;;;;;;28.77;14.65;;;;;;;1.74;100.00;103506.16;4988742;28;20506;-77
2022/03/20 05:20:27;;;;;;;31.30;15.52;;;;;;;1.63;100.00;103496.75;4987547;28;20125;-77
2022/03/20 05:22:53;;;;;;;32.33;15.93;;;;;;;1.67;100.00;103497.53;4991123;28;20026;-77
2022/03/20 05:25:19;;;;;;;;;;;;;;;1.64;100.00;103503.75;4987964;28;20366;-76
2022/03/20 05:27:44;;;;;;;30.92;16.08;;;;;;;1.65;100.00;103484.41;4987574;28;20008;-76
2022/03/20 05:30:10;;;;;;;33.00;15.23;;;;;;;1.70;100.00;103492.19;4997493;28;20048;-77
2022/03/20 05:32:40;;;;;;;30.83;14.82;;;;;;;1.67;100.00;103487.88;5003403;28;20272;-77
2022/03/20 05:35:08;;;;;;;27.13;13.93;;;;;;;1.67;100.00;103482.59;5013919;28;20031;-77
2022/03/20 05:37:34;;;;;;;26.42;14.32;;;;;;;1.66;100.00;103488.78;5001621;28;20084;-77
2022/03/20 05:40:00;;;;;;;;;;;;;;;1.72;100.00;103486.91;4998158;28;20454;-77
2022/03/20 05:42:26;;;;;;;28.08;14.63;;;;;;;1.72;100.00;103484.25;4997560;28;19913;-77
2022/03/20 05:44:51;;;;;;;38.00;14.63;;;;;;;1.75;100.00;103482.41;4999969;28;20088;-77
2022/03/20 05:47:17;;;;;;;30.58;15.75;;;;;;;1.75;100.00;103482.41;5000391;28;20084;-77
2022/03/20 05:49:42;;;;;;;25.45;14.38;;;;;;;1.79;100.00;103481.44;5003957;28;20352;-77
2022/03/20 05:52:08;;;;;;;28.80;15.27;;;;;;;1.80;100.00;103471.75;5003857;28;20026;-77
2022/03/20 05:54:34;;;;;;;31.88;14.98;;;;;;;1.81;100.00;103476.13;5002805;28;20280;-77
2022/03/20 05:59:44;;;;;;;38.55;15.63;;;;;;;1.89;100.00;103482.06;4984838;28;20030;-77
2022/03/20 06:02:10;;;;;;;37.47;16.23;;;;;;;1.82;100.00;103475.22;4986718;28;20045;-77
2022/03/20 06:04:37;;;;;;;29.20;15.10;;;;;;;1.85;100.00;103477.75;4989837;28;20050;-76
2022/03/20 06:07:03;;;;;;;28.08;15.15;;;;;;;1.94;100.00;103468.75;4986716;28;20149;-77
2022/03/20 06:09:28;;;;;;;29.92;15.75;;;;;;;1.99;100.00;103462.50;4970447;28;20125;-77
2022/03/20 06:11:54;;;;;;;33.85;17.02;;;;;;;2.05;100.00;103464.94;4988916;28;20126;-76
2022/03/20 06:14:20;;;;;;;30.80;15.10;;;;;;;2.11;100.00;103461.28;4994002;28;20053;-76
2022/03/20 06:16:48;;;;;;;25.67;14.25;;;;;;;2.30;100.00;103477.47;4994517;28;20105;-77
2022/03/20 06:19:15;;;;;;;27.98;14.40;;;;;;;2.95;100.00;103479.13;4982280;28;20031;-78
2022/03/20 06:21:44;;;;;;;33.22;16.00;;;;;;;3.27;98.19;103456.16;4997521;28;20033;-76
2022/03/20 06:24:10;;;;;;;25.13;13.65;;;;;;;3.25;95.43;103436.84;5000349;28;20025;-77
2022/03/20 06:26:37;;;;;;;33.15;15.52;;;;;;;3.56;93.37;103428.81;4996339;28;20072;-77
2022/03/20 06:29:05;;;;;;;26.83;13.43;;;;;;;3.40;91.42;103393.25;4998017;28;20034;-77
2022/03/20 06:31:31;;;;;;;31.95;14.40;;;;;;;3.22;90.82;103382.38;5002507;28;20103;-76
2022/03/20 06:33:56;;;;;;;;;;;;;;;3.04;91.17;103383.81;5000019;28;20121;-77
2022/03/20 06:36:22;;;;;;;25.75;13.45;;;;;;;3.04;91.66;103398.78;4992681;28;20000;-76
2022/03/20 06:38:47;;;;;;;32.43;15.33;;;;;;;3.42;91.09;103423.09;4988668;28;20034;-77
2022/03/20 06:41:13;;;;;;;30.87;13.97;;;;;;;3.88;89.54;103429.47;4990719;28;20122;-76
2022/03/20 06:43:39;;;;;;;27.88;13.80;;;;;;;4.16;87.35;103392.34;4973402;28;20041;-76
2022/03/20 06:46:06;;;;;;;30.00;14.52;;;;;;;4.09;85.48;103357.31;4989005;28;20061;-77
2022/03/20 06:48:32;;;;;;;31.40;14.43;;;;;;;4.34;84.11;103337.91;4988519;28;20053;-76
2022/03/20 06:50:58;;;;;;;31.38;14.82;;;;;;;3.99;82.86;103298.63;4993037;28;20034;-77
2022/03/20 06:53:23;;;;;;;25.80;14.02;;;;;;;4.12;82.69;103317.56;4994875;28;20034;-77
2022/03/20 06:55:49;;;;;;;26.37;13.43;;;;;;;4.34;81.20;103293.78;4975895;28;20025;-77
2022/03/20 06:58:15;;;;;;;26.17;13.88;;;;;;;4.24;80.22;103268.63;4998097;28;20492;-76
2022/03/20 07:00:41;;;;;;;34.33;15.30;;;;;;;4.54;79.60;103294.78;4979432;28;20034;-77
2022/03/20 07:03:08;;;;;;;28.10;13.85;;;;;;;4.49;78.60;103246.50;4997496;28;20045;-77
2022/03/20 07:05:35;;;;;;;28.23;14.02;;;;;;;4.55;77.80;103239.19;4999285;28;20022;-76
2022/03/20 07:08:01;;;;;;;29.48;14.55;;;;;;;4.39;76.69;103212.47;4994396;28;20034;-77
2022/03/20 07:10:27;;;;;;;;;;;;;;;4.39;76.55;103232.78;4994777;28;20030;-77
2022/03/20 07:15:38;;;;;;;27.40;14.05;;;;;;;4.73;74.90;103215.50;4997734;28;20757;-76
2022/03/20 07:18:04;;;;;;;31.80;14.65;;;;;;;4.78;74.25;103185.31;4992259;28;20030;-74
2022/03/20 07:20:29;;;;;;;26.13;15.32;;;;;;;4.63;73.79;103152.38;4993139;28;20542;-75
2022/03/20 07:22:55;;;;;;;29.20;13.67;;;;;;;5.05;73.69;103198.25;4997405;28;20041;-74
2022/03/20 07:30:48;;;;;;;26.35;14.80;;;;;;;4.50;70.58;103047.19;5005059;28;20038;-78
2022/03/20 07:33:14;;;;;;;31.73;15.60;;;;;;;4.54;70.62;103110.47;5004144;28;20394;-79
2022/03/20 07:35:40;;;;;;;31.65;14.88;;;;;;;4.81;69.57;103083.72;4996735;28;20041;-80
2022/03/20 07:38:05;;;;;;;30.92;14.90;;;;;;;4.98;68.76;103075.88;4991759;28;20022;-80
2022/03/20 07:40:31;;;;;;;28.23;14.43;;;;;;;5.01;68.33;103057.22;4994366;28;20558;-79
2022/03/20 07:42:56;;;;;;;25.65;14.73;;;;;;;5.31;67.98;103091.16;4998311;28;20106;-77
2022/03/20 07:45:22;;;;;;;26.27;14.63;;;;;;;5.37;66.51;103026.47;5004851;28;20037;-80
2022/03/20 07:47:48;;;;;;;27.80;15.38;;;;;;;5.71;65.17;103030.97;5002571;28;20018;-79
2022/03/20 07:50:13;;;;;;;27.73;15.40;;;;;;;5.79;64.32;103012.06;5005469;28;20048;-78
2022/03/20 07:52:38;;;;;;;25.47;14.03;;;;;;;5.78;62.98;102946.72;5003374;28;20277;-75
2022/03/20 07:55:04;;;;;;;28.83;16.23;;;;;;;5.70;61.94;102910.00;5002630;28;20094;-77
2022/03/20 07:57:30;;;;;;;26.75;14.45;;;;;;;6.01;61.78;102921.72;5002282;28;20117;-77
2022/03/20 07:59:56;;;;;;;25.93;15.17;;;;;;;6.29;61.06;102931.72;5003320;28;20142;-78
2022/03/20 08:02:23;;;;;;;26.63;14.75;;;;;;;6.01;59.99;102820.94;5001468;28;20033;-79
2022/03/20 08:04:49;;;;;;;24.38;14.65;;;;;;;5.80;59.92;102850.25;4988508;28;20056;-79
2022/03/20 08:07:14;;;;;;;27.33;14.80;;;;;;;6.39;59.60;102866.63;4991995;28;20065;-76
2022/03/20 08:09:40;;;;;;;28.15;16.25;;;;;;;5.60;58.50;102724.13;4988512;28;20431;-78
2022/03/20 08:12:07;;;;;;;35.33;16.23;;;;;;;5.68;58.29;102739.59;5002793;28;20088;-79
2022/03/20 08:14:36;;;;;;;34.03;16.02;;;;;;;5.98;58.20;102779.53;4998675;28;20026;-80
2022/03/20 08:17:06;;;;;;;29.20;15.30;;;;;;;6.88;57.03;102820.56;4998557;28;20022;-79
2022/03/20 08:19:32;;;;;;;30.45;16.23;;;;;;;6.69;56.52;102739.31;5002573;28;20084;-77
2022/03/20 08:21:59;;;;;;;25.67;15.95;;;;;;;6.29;55.66;102640.75;4996625;28;20027;-79
2022/03/20 08:24:24;;;;;;;28.45;15.10;;;;;;;6.94;55.56;102772.41;5036839;22;20109;-75
2022/03/20 08:26:49;;;;;;;30.03;16.23;;;;;;;6.62;55.45;102699.94;5027270;28;20105;-75
2022/03/20 08:29:16;;;;;;;28.33;15.90;;;;;;;6.95;56.37;102828.09;5015677;28;20036;-75
2022/03/20 08:31:47;;;;;;;30.10;15.98;;;;;;;7.85;55.33;102854.75;5009646;28;20625;-76
2022/03/20 08:34:16;;;;;;;26.10;15.77;;;;;;;7.58;53.94;102687.97;5006146;28;20057;-75
2022/03/20 08:36:43;;;;;;;28.55;15.95;;;;;;;6.87;54.14;102598.47;5006150;28;20076;-75
2022/03/20 08:39:08;;;;;;;30.42;17.10;;;;;;;6.84;54.96;102667.69;5007007;28;20057;-74
2022/03/20 08:41:34;;;;;;;27.87;16.47;;;;;;;7.34;54.21;102715.09;5006960;28;20061;-74
2022/03/20 08:44:04;;;;;;;33.15;18.60;;;;;;;7.16;54.02;102656.00;5006947;28;20029;-74
2022/03/20 08:46:31;;;;;;;32.78;17.70;;;;;;;6.68;54.08;102596.94;5011081;28;20077;-76
2022/03/20 08:48:57;;;;;;;32.17;17.10;;;;;;;7.52;53.71;102715.78;5005001;28;20038;-75
2022/03/20 08:51:23;;;;;;;35.83;17.45;;;;;;;8.15;52.24;102679.06;5019705;28;20105;-75
2022/03/20 08:53:48;;;;;;;32.20;18.77;;;;;;;8.01;52.04;102603.66;4994774;28;20133;-74
2022/03/20 08:56:15;;;;;;;35.80;16.73;;;;;;;7.67;52.50;102604.13;4999434;28;20039;-74
2022/03/20 08:58:40;;;;;;;32.00;16.58;;;;;;;7.65;51.97;102569.66;4996046;28;20035;-76
2022/03/20 09:01:07;;;;;;;29.45;16.63;;;;;;;7.18;52.35;102507.13;4974919;28;20029;-76
2022/03/20 09:03:33;;;;;;;28.33;16.00;;;;;;;6.90;52.76;102523.94;4995296;28;20037;-75
2022/03/20 09:05:58;;;;;;;31.70;17.20;;;;;;;7.49;53.00;102660.19;5012664;28;20026;-75
2022/03/20 09:08:24;;;;;;;33.77;17.43;;;;;;;7.56;52.53;102650.88;5013426;28;20038;-75
2022/03/20 09:10:50;;;;;;;29.97;16.40;;;;;;;7.80;51.13;102554.53;5009117;28;20069;-75
2022/03/20 09:13:16;;;;;;;28.08;16.80;;;;;;;8.37;50.65;102611.97;4993131;28;20550;-75
2022/03/20 09:15:41;;;;;;;30.70;16.98;;;;;;;8.03;50.24;102499.81;5010157;28;20112;-75
2022/03/20 09:20:51;;;;;;;28.73;16.75;;;;;;;8.90;48.71;102519.59;5011376;28;20069;-75
2022/03/20 09:23:16;;;;;;;33.17;17.23;;;;;;;7.74;49.12;102388.25;5009289;28;20049;-76
2022/03/20 09:25:44;;;;;;;28.53;16.53;;;;;;;8.32;49.80;102564.38;4997348;28;20025;-75
2022/03/20 09:28:11;;;;;;;28.00;16.08;;;;;;;7.98;49.47;102468.22;5018949;28;20026;-75
2022/03/20 09:30:41;;;;;;;28.38;16.02;;;;;;;8.10;48.55;102428.41;4999725;28;20389;-75
2022/03/20 09:33:08;;;;;;;27.80;15.60;;;;;;;7.69;48.98;102378.91;5011337;28;20033;-76
2022/03/20 09:35:35;;;;;;;29.55;16.00;;;;;;;8.02;49.09;102459.06;4972133;28;20100;-75
2022/03/20 09:38:02;;;;;;;29.85;15.82;;;;;;;8.73;48.46;102544.72;5010405;28;20332;-76
2022/03/20 09:40:28;;;;;;;28.23;15.10;;;;;;;9.91;48.36;102685.66;4973412;28;20028;-77
2022/03/20 09:42:53;;;;;;;27.10;15.68;;;;;;;9.29;46.98;102432.41;4988419;28;20064;-77
2022/03/20 09:45:19;;;;;;;28.93;14.73;;;;;;;8.76;47.29;102382.09;4996005;28;20025;-75
2022/03/20 09:47:45;;;;;;;30.50;16.95;;;;;;;7.81;47.12;102206.09;4969776;28;20102;-74
2022/03/20 09:50:13;;;;;;;26.38;16.05;;;;;;;8.88;47.00;102407.81;4970595;28;20172;-76
2022/03/20 09:52:41;;;;;;;28.67;17.55;;;;;;;9.55;46.87;102483.78;5002887;28;20521;-76
2022/03/20 09:55:07;;;;;;;;;;;;;;;9.36;46.48;102454.13;4971132;28;20025;-75
2022/03/20 09:57:32;;;;;;;30.67;16.35;;;;;;;9.39;46.02;102422.78;5003166;28;19948;-76
2022/03/20 10:00:01;;;;;;;24.17;15.63;;;;;;;8.59;46.31;102284.81;4986698;28;20185;-76
2022/03/20 10:02:28;;;;;;;27.73;15.20;;;;;;;9.13;46.98;102471.78;5003804;28;20030;-76
2022/03/20 10:05:07;;;;;;;;;;;;;;;8.77;46.85;102381.13;5006167;28;20033;-75
2022/03/20 10:07:40;;;;;;;26.75;15.18;;;;;;;8.68;47.22;102413.72;4979905;28;19925;-76
2022/03/20 10:10:05;;;;;;;28.25;16.23;;;;;;;9.74;46.43;102528.66;4988420;28;20080;-76
2022/03/20 10:12:32;;;;;;;29.17;16.10;;;;;;;9.76;45.32;102414.66;4988523;28;20034;-77
2022/03/20 10:14:57;;;;;;;26.33;16.77;;;;;;;8.65;46.64;102348.22;4971416;28;20026;-76
2022/03/20 10:17:23;;;;;;;24.52;14.68;;;;;;;9.13;46.61;102466.47;4988363;28;20101;-75
2022/03/20 10:19:49;;;;;;;29.67;16.80;;;;;;;9.81;45.06;102411.66;4988041;28;20048;-75
2022/03/20 10:22:21;;;;;;;24.60;13.83;;;;;;;9.95;44.57;102371.44;4987526;28;20410;-76
2022/03/20 10:24:51;;;;;;;28.00;15.93;;;;;;;9.63;43.96;102245.91;5005554;28;20033;-76
2022/03/20 10:27:17;;;;;;;25.92;15.00;;;;;;;9.75;44.18;102284.13;4987979;28;20026;-76
2022/03/20 10:29:51;;;;;;;24.73;15.50;;;;;;;9.12;44.85;102260.44;4987823;28;20021;-77
2022/03/20 10:32:17;;;;;;;26.65;15.40;;;;;;;10.30;44.75;102456.81;4988218;28;20397;-76
2022/03/20 10:34:48;;;;;;;24.77;15.73;;;;;;;10.08;44.67;102414.88;4989373;28;20100;-77
2022/03/20 10:37:16;;;;;;;23.40;14.40;;;;;;;9.71;44.00;102273.66;5013305;28;20582;-76
2022/03/20 10:39:42;;;;;;;27.58;15.60;;;;;;;10.25;43.50;102293.44;5004867;28;20029;-76
2022/03/20 10:42:14;;;;;;;22.85;15.65;;;;;;;11.14;43.06;102445.72;5004707;28;20037;-77
2022/03/20 10:44:40;;;;;;;25.08;15.93;;;;;;;10.67;42.74;102288.31;4983171;28;20498;-76
2022/03/20 10:47:13;;;;;;;24.95;14.85;;;;;;;11.08;42.78;102398.13;5002849;28;20037;-76
2022/03/20 10:49:40;;;;;;;28.35;15.48;;;;;;;10.57;42.67;102282.88;4984621;28;20030;-76
2022/03/20 10:52:08;;;;;;;26.30;15.32;;;;;;;9.65;42.48;102097.31;4967851;28;20116;-76
2022/03/20 10:54:42;;;;;;;23.42;14.65;;;;;;;10.91;42.47;102380.78;5002685;28;20037;-77
2022/03/20 10:57:08;;;;;;;24.80;13.93;;;;;;;11.75;41.76;102419.28;4973593;28;20025;-77
2022/03/20 10:59:34;;;;;;;22.23;14.20;;;;;;;11.20;40.33;102153.84;5006797;28;20098;-76
2022/03/20 11:02:02;;;;;;;23.75;14.77;;;;;;;10.57;41.16;102111.09;4993018;28;20092;-75
2022/03/20 11:04:28;;;;;;;24.45;14.20;;;;;;;10.45;42.10;102195.75;4999459;28;20033;-76
2022/03/20 11:06:54;;;;;;;25.52;14.73;;;;;;;10.89;40.75;102143.13;4999696;28;20044;-75
2022/03/20 11:09:20;;;;;;;;;;;;;;;10.02;40.47;101950.22;5009242;28;20402;-75
2022/03/20 11:11:50;;;;;;;;;;;;;;;11.10;40.04;102111.03;4991539;28;20000;-74
2022/03/20 11:14:18;;;;;;;22.80;14.00;;;;;;;10.52;39.66;101903.22;5009221;28;20008;-76
2022/03/20 11:16:47;;;;;;;23.15;14.80;;;;;;;11.17;40.23;102224.47;4991266;28;20029;-74
2022/03/20 11:19:15;;;;;;;19.70;13.57;;;;;;;11.23;39.52;102086.75;5008768;28;20026;-75
2022/03/20 11:21:44;;;;;;;27.45;14.50;;;;;;;10.15;40.86;101991.75;5008729;28;20018;-75
2022/03/20 11:24:11;;;;;;;28.13;14.40;;;;;;;10.69;41.05;102125.25;5008821;28;20398;-75
2022/03/20 11:26:38;;;;;;;;;;;;;;;11.05;39.93;102104.38;5009199;28;20123;-75
2022/03/20 11:29:08;;;;;;;21.65;14.00;;;;;;;10.84;39.56;102054.50;5007164;28;19925;-75
2022/03/20 11:31:36;;;;;;;21.50;13.82;;;;;;;11.12;40.97;102210.66;5006779;28;20144;-75
2022/03/20 11:34:06;;;;;;;25.55;13.68;;;;;;;11.97;38.90;102142.63;4989820;28;20029;-75
2022/03/20 11:37:03;;;;;;;22.27;13.65;;;;;;;11.93;38.96;102151.06;4998073;28;20048;-75
2022/03/20 11:39:29;;;;;;;24.67;15.30;;;;;;;11.75;40.10;102207.03;5003561;28;20407;-75
2022/03/20 11:42:21;;;;;;;25.67;15.13;;;;;;;11.58;39.01;102048.03;4998826;28;20033;-75
2022/03/20 11:44:59;;;;;;;23.08;14.07;;;;;;;10.66;40.03;101942.06;4996517;28;20491;-75
2022/03/20 11:47:29;;;;;;;21.23;14.30;;;;;;;11.10;40.28;102076.28;5003066;28;20442;-75